Time;durP1;ratioP1;P1;durP2;ratioP2;P2;SDS_P1;SDS_P2;PMS_P1;PMS_P2;Temp;Humidity;BMP_temperature;BMP_pressure;BME280_temperature;BME280_humidity;BME280_pressure;Samples;Min_cycle;Max_cycle;Signal;HPM_P1;HPM_P2
2023/08/06 00:00:55;;;;;;;4.70;4.30;;;16.20;99.90;;;;;;5095188;28;21242;-74
2023/08/06 00:03:22;;;;;;;4.33;3.93;;;16.10;99.90;;;;;;5095235;28;20631;-74
2023/08/06 00:05:49;;;;;;;5.03;4.57;;;15.90;99.90;;;;;;5083782;28;20655;-74
2023/08/06 00:08:16;;;;;;;5.50;4.30;;;15.70;99.90;;;;;;5086384;28;20987;-75
2023/08/06 00:10:42;;;;;;;3.93;3.23;;;15.60;99.90;;;;;;5088723;28;20661;-75
2023/08/06 00:13:10;;;;;;;4.50;4.10;;;15.50;99.90;;;;;;5089332;28;20624;-75
2023/08/06 00:15:37;;;;;;;5.27;4.80;;;15.40;99.90;;;;;;5092637;28;20651;-75
2023/08/06 00:18:04;;;;;;;6.27;5.67;;;15.20;99.90;;;;;;5088344;28;20672;-74
2023/08/06 00:20:31;;;;;;;17.03;8.80;;;15.30;99.90;;;;;;5090741;28;20666;-74
2023/08/06 00:22:58;;;;;;;13.77;8.63;;;15.30;99.90;;;;;;5093496;28;20643;-74
2023/08/06 00:25:24;;;;;;;7.57;6.00;;;15.10;99.90;;;;;;5089528;28;20655;-74
2023/08/06 00:27:51;;;;;;;6.10;4.17;;;15.00;99.90;;;;;;5100375;28;20718;-74
2023/08/06 00:30:19;;;;;;;4.93;4.53;;;14.90;99.90;;;;;;5088861;28;21169;-74
2023/08/06 00:32:46;;;;;;;4.40;4.00;;;14.80;99.90;;;;;;5094208;28;20736;-74
2023/08/06 00:35:14;;;;;;;4.83;4.20;;;14.80;99.90;;;;;;5098030;28;20621;-74
2023/08/06 00:37:40;;;;;;;6.43;5.47;;;14.70;99.90;;;;;;5082457;28;20696;-74
2023/08/06 00:40:08;;;;;;;4.10;3.80;;;14.70;99.90;;;;;;5090381;28;21135;-74
2023/08/06 00:42:35;;;;;;;3.83;3.53;;;14.70;99.90;;;;;;5089789;28;20632;-74
2023/08/06 00:45:02;;;;;;;3.77;3.13;;;14.80;99.90;;;;;;5090249;28;20635;-74
2023/08/06 00:47:31;;;;;;;3.40;3.10;;;14.90;99.90;;;;;;5090209;28;20771;-74
2023/08/06 00:49:58;;;;;;;2.87;2.67;;;14.80;99.90;;;;;;5098528;28;20631;-74
2023/08/06 00:52:25;;;;;;;3.70;3.07;;;14.70;99.90;;;;;;5090167;28;20648;-74
2023/08/06 00:54:52;;;;;;;3.33;3.03;;;14.70;99.90;;;;;;5089853;28;20720;-74
2023/08/06 00:57:20;;;;;;;3.67;3.37;;;14.70;99.90;;;;;;5089631;28;20649;-74
2023/08/06 00:59:48;;;;;;;2.63;2.43;;;14.60;99.90;;;;;;5099042;28;20653;-74
2023/08/06 01:02:15;;;;;;;2.70;2.40;;;14.60;99.90;;;;;;5097248;28;20651;-73
2023/08/06 01:04:43;;;;;;;2.87;2.60;;;14.60;99.90;;;;;;5098281;28;20727;-75
2023/08/06 01:07:22;;;;;;;3.63;2.40;;;14.60;99.90;;;;;;5082988;28;20721;-75
2023/08/06 01:09:56;;;;;;;2.50;2.30;;;14.60;99.90;;;;;;5095843;28;21196;-75
2023/08/06 01:12:35;;;;;;;1.97;1.87;;;14.50;99.90;;;;;;5090938;28;20644;-74
2023/08/06 01:15:15;;;;;;;2.70;2.50;;;14.50;99.90;;;;;;5089909;28;20624;-73
2023/08/06 01:17:43;;;;;;;3.50;2.50;;;14.40;99.90;;;;;;5094476;28;20652;-73
2023/08/06 01:20:12;;;;;;;2.17;1.97;;;14.30;99.90;;;;;;5092366;28;20629;-73
2023/08/06 01:22:42;;;;;;;1.93;1.83;;;14.30;99.90;;;;;;5093318;28;21183;-73
2023/08/06 01:25:11;;;;;;;2.50;2.30;;;14.40;99.90;;;;;;5089098;28;20641;-73
2023/08/06 01:27:45;;;;;;;2.03;1.87;;;14.30;99.90;;;;;;5089194;28;20624;-74
2023/08/06 01:30:18;;;;;;;1.90;1.70;;;14.30;99.90;;;;;;5089697;28;20969;-74
2023/08/06 01:32:54;;;;;;;2.60;2.13;;;14.30;99.90;;;;;;5097185;28;20625;-74
2023/08/06 01:35:22;;;;;;;3.50;2.70;;;14.30;99.90;;;;;;5089700;28;20624;-74
2023/08/06 01:37:52;;;;;;;2.90;2.17;;;14.30;99.90;;;;;;5091949;28;20633;-74
2023/08/06 01:40:20;;;;;;;2.07;1.97;;;14.30;99.90;;;;;;5097418;28;20628;-74
2023/08/06 01:42:48;;;;;;;2.70;2.50;;;14.40;99.90;;;;;;5081405;28;20629;-74
2023/08/06 01:45:17;;;;;;;3.90;2.17;;;14.40;99.90;;;;;;5097389;28;20659;-73
2023/08/06 01:47:45;;;;;;;3.00;2.70;;;14.50;99.90;;;;;;5097636;28;20665;-74
2023/08/06 01:50:13;;;;;;;2.13;1.93;;;14.50;99.90;;;;;;5087350;28;20621;-74
2023/08/06 01:52:40;;;;;;;2.50;2.30;;;14.40;99.90;;;;;;5093411;28;20661;-74
2023/08/06 01:55:09;;;;;;;2.13;1.93;;;14.20;99.90;;;;;;5088295;28;21038;-74
2023/08/06 01:57:37;;;;;;;2.20;2.00;;;14.10;99.90;;;;;;5093254;28;21218;-74
2023/08/06 02:00:06;;;;;;;3.20;2.20;;;14.10;99.90;;;;;;5100024;28;20631;-74
2023/08/06 02:02:34;;;;;;;2.40;2.20;;;14.20;99.90;;;;;;5098244;28;21317;-74
2023/08/06 02:05:02;;;;;;;2.70;2.30;;;14.20;99.90;;;;;;5090373;28;20628;-74
2023/08/06 02:07:30;;;;;;;2.13;1.90;;;14.20;99.90;;;;;;5097275;28;20633;-74
2023/08/06 02:09:57;;;;;;;2.10;2.00;;;14.20;99.90;;;;;;5087965;28;20618;-74
2023/08/06 02:12:25;;;;;;;2.53;2.30;;;14.10;99.90;;;;;;5094190;28;20764;-74
2023/08/06 02:14:52;;;;;;;3.20;2.90;;;14.10;99.90;;;;;;5096403;28;20625;-74
2023/08/06 02:17:19;;;;;;;2.00;1.90;;;14.20;99.90;;;;;;5086759;28;21229;-74
2023/08/06 02:19:47;;;;;;;2.40;1.80;;;14.20;99.90;;;;;;5098307;28;20671;-74
2023/08/06 02:22:14;;;;;;;2.37;2.17;;;14.10;99.90;;;;;;5091239;28;20714;-74
2023/08/06 02:24:42;;;;;;;2.30;2.10;;;14.00;99.90;;;;;;5090279;28;20625;-74
2023/08/06 02:27:09;;;;;;;2.50;2.30;;;14.10;99.90;;;;;;5096968;28;20759;-74
2023/08/06 02:29:41;;;;;;;1.60;1.50;;;14.00;99.90;;;;;;5086996;28;20617;-74
2023/08/06 02:32:08;;;;;;;3.47;2.20;;;14.00;99.90;;;;;;5087575;28;20714;-74
2023/08/06 02:34:36;;;;;;;3.73;2.70;;;14.00;99.90;;;;;;5088069;28;20629;-74
2023/08/06 02:37:04;;;;;;;1.90;1.80;;;13.90;99.90;;;;;;5096917;28;20649;-74
2023/08/06 02:39:31;;;;;;;2.20;2.00;;;13.90;99.90;;;;;;5093159;28;21315;-74
2023/08/06 02:41:58;;;;;;;2.33;2.23;;;13.90;99.90;;;;;;5087870;28;20645;-74
2023/08/06 02:44:28;;;;;;;1.93;1.77;;;13.90;99.90;;;;;;5087927;28;20632;-74
2023/08/06 02:46:57;;;;;;;1.70;1.60;;;13.90;99.90;;;;;;5095284;28;20771;-74
2023/08/06 02:49:24;;;;;;;2.00;1.90;;;14.00;99.90;;;;;;5095969;28;20930;-74
2023/08/06 02:51:52;;;;;;;2.10;1.80;;;13.90;99.90;;;;;;5085605;28;20656;-74
2023/08/06 02:54:20;;;;;;;1.80;1.70;;;13.90;99.90;;;;;;5095258;28;20636;-76
2023/08/06 02:56:48;;;;;;;3.13;2.17;;;13.90;99.90;;;;;;5087458;28;20653;-74
2023/08/06 02:59:15;;;;;;;2.40;2.20;;;13.90;99.90;;;;;;5092759;28;20674;-75
2023/08/06 03:01:43;;;;;;;2.30;1.93;;;13.90;99.90;;;;;;5089512;28;20660;-75
2023/08/06 03:04:12;;;;;;;2.67;2.07;;;14.00;99.90;;;;;;5088482;28;20617;-74
2023/08/06 03:06:40;;;;;;;1.60;1.50;;;14.00;99.90;;;;;;5087471;28;20690;-74
2023/08/06 03:09:06;;;;;;;1.80;1.70;;;14.10;99.90;;;;;;5095413;28;20641;-74
2023/08/06 03:11:33;;;;;;;1.80;1.70;;;14.10;99.90;;;;;;5091133;28;20679;-74
2023/08/06 03:14:00;;;;;;;2.57;2.10;;;14.20;99.90;;;;;;5087252;28;21180;-74
2023/08/06 03:16:27;;;;;;;2.27;1.97;;;14.10;99.90;;;;;;5095023;28;20640;-74
2023/08/06 03:18:54;;;;;;;2.07;1.87;;;14.10;99.90;;;;;;5089334;28;20657;-74
2023/08/06 03:21:22;;;;;;;1.90;1.40;;;14.10;99.90;;;;;;5093326;28;20636;-74
2023/08/06 03:23:49;;;;;;;1.87;1.57;;;14.10;99.90;;;;;;5099446;28;20627;-74
2023/08/06 03:26:16;;;;;;;6.27;2.30;;;14.20;99.90;;;;;;5096790;28;20652;-74
2023/08/06 03:28:43;;;;;;;2.23;1.90;;;14.20;99.90;;;;;;5096408;28;20691;-74
2023/08/06 03:31:10;;;;;;;1.40;1.30;;;14.10;99.90;;;;;;5087279;28;20656;-74
2023/08/06 03:33:37;;;;;;;1.60;1.50;;;14.10;99.90;;;;;;5094268;28;20720;-74
2023/08/06 03:36:05;;;;;;;1.57;1.37;;;14.10;99.90;;;;;;5094827;28;20712;-74
2023/08/06 03:38:34;;;;;;;2.10;1.43;;;14.10;99.90;;;;;;5087943;28;20649;-75
2023/08/06 03:41:01;;;;;;;1.63;1.53;;;14.20;99.90;;;;;;5087362;28;21031;-74
2023/08/06 03:43:28;;;;;;;3.27;1.40;;;14.20;99.90;;;;;;5093459;28;20625;-75
2023/08/06 03:45:55;;;;;;;1.10;1.00;;;14.20;99.90;;;;;;5087366;28;20688;-74
2023/08/06 03:48:21;;;;;;;1.40;1.30;;;14.10;99.90;;;;;;5095862;28;21051;-74
2023/08/06 03:50:48;;;;;;;1.33;1.23;;;14.10;99.90;;;;;;5094156;28;20748;-74
2023/08/06 03:53:15;;;;;;;2.00;1.80;;;14.20;99.90;;;;;;5091316;28;21207;-74
2023/08/06 03:55:43;;;;;;;1.60;1.30;;;14.20;99.90;;;;;;5089674;28;20692;-74
2023/08/06 03:58:10;;;;;;;6.00;1.57;;;14.20;99.90;;;;;;5087028;28;20636;-74
2023/08/06 04:00:37;;;;;;;1.90;1.80;;;14.20;99.90;;;;;;5085975;28;20676;-74
2023/08/06 04:03:04;;;;;;;2.20;1.97;;;14.20;99.90;;;;;;5089125;28;20628;-74
2023/08/06 04:05:32;;;;;;;1.73;1.63;;;14.10;99.90;;;;;;5087445;28;20744;-74
2023/08/06 04:07:59;;;;;;;1.23;1.00;;;14.10;99.90;;;;;;5088918;28;20629;-74
2023/08/06 04:10:26;;;;;;;0.90;0.90;;;14.10;99.90;;;;;;5098648;28;20656;-74
2023/08/06 04:12:54;;;;;;;1.27;1.13;;;14.10;99.90;;;;;;5091398;28;20682;-74
2023/08/06 04:15:21;;;;;;;2.27;1.17;;;14.20;99.90;;;;;;5098476;28;20625;-74
2023/08/06 04:17:48;;;;;;;1.40;1.10;;;14.10;99.90;;;;;;5090828;28;21065;-74
2023/08/06 04:20:15;;;;;;;1.37;1.13;;;14.10;99.90;;;;;;5089470;28;20657;-74
2023/08/06 04:22:41;;;;;;;1.03;0.90;;;14.10;99.90;;;;;;5097716;28;20624;-74
2023/08/06 04:25:09;;;;;;;1.70;1.27;;;14.10;99.90;;;;;;5093207;28;20621;-74
2023/08/06 04:27:36;;;;;;;3.83;1.93;;;14.10;99.90;;;;;;5091432;28;20659;-74
2023/08/06 04:30:06;;;;;;;1.20;1.07;;;14.10;99.90;;;;;;5087368;28;20641;-74
2023/08/06 04:32:33;;;;;;;2.00;1.20;;;14.20;99.90;;;;;;5088232;28;21036;-74
2023/08/06 04:35:00;;;;;;;2.77;1.37;;;14.20;99.90;;;;;;5096635;28;20979;-74
2023/08/06 04:37:26;;;;;;;1.80;1.40;;;14.10;99.90;;;;;;5099018;28;21250;-75
2023/08/06 04:39:53;;;;;;;2.00;1.23;;;14.00;99.90;;;;;;5098342;28;20682;-74
2023/08/06 04:42:20;;;;;;;1.63;1.30;;;14.10;99.90;;;;;;5089635;28;20655;-74
2023/08/06 04:44:47;;;;;;;2.07;1.77;;;14.10;99.90;;;;;;5091641;28;21239;-74
2023/08/06 04:47:15;;;;;;;1.90;1.80;;;14.10;99.90;;;;;;5090105;28;20649;-74
2023/08/06 04:49:42;;;;;;;0.97;0.90;;;14.20;99.90;;;;;;5078717;28;20621;-74
2023/08/06 04:52:08;;;;;;;1.30;0.97;;;14.20;99.90;;;;;;5081738;28;20744;-74
2023/08/06 04:54:35;;;;;;;1.47;1.33;;;14.30;99.90;;;;;;5088871;28;20625;-75
2023/08/06 04:57:02;;;;;;;1.60;1.50;;;14.40;99.90;;;;;;5093918;28;20653;-74
2023/08/06 04:59:29;;;;;;;1.63;1.00;;;14.40;99.90;;;;;;5098205;28;20633;-74
2023/08/06 05:01:55;;;;;;;0.93;0.93;;;14.40;99.90;;;;;;5099737;28;20763;-74
2023/08/06 05:04:24;;;;;;;1.17;1.07;;;14.30;99.90;;;;;;5089625;28;20623;-75
2023/08/06 05:06:50;;;;;;;0.70;0.70;;;14.40;99.90;;;;;;5087764;28;20648;-74
2023/08/06 05:09:17;;;;;;;4.93;1.30;;;14.40;99.90;;;;;;5097872;28;20628;-75
2023/08/06 05:11:44;;;;;;;1.57;1.00;;;14.40;99.90;;;;;;5094746;28;20651;-74
2023/08/06 05:14:11;;;;;;;1.20;1.10;;;14.40;99.90;;;;;;5097233;28;20624;-74
2023/08/06 05:16:37;;;;;;;0.93;0.93;;;14.30;99.90;;;;;;5090678;28;21157;-74
2023/08/06 05:19:04;;;;;;;2.63;1.07;;;14.50;99.90;;;;;;5086980;28;20718;-74
2023/08/06 05:21:32;;;;;;;0.93;0.80;;;14.50;99.90;;;;;;5094981;28;20732;-74
2023/08/06 05:23:59;;;;;;;1.70;1.10;;;14.50;99.90;;;;;;5087191;28;20624;-74
2023/08/06 05:26:26;;;;;;;1.07;0.67;;;14.40;99.90;;;;;;5093430;28;20645;-74
2023/08/06 05:28:52;;;;;;;1.70;0.87;;;14.30;99.90;;;;;;5096905;28;20625;-74
2023/08/06 05:31:19;;;;;;;5.20;0.73;;;14.30;99.90;;;;;;5099748;28;20647;-74
2023/08/06 05:33:46;;;;;;;0.50;0.50;;;14.50;99.90;;;;;;5093297;28;21056;-74
2023/08/06 05:36:13;;;;;;;2.60;1.27;;;14.60;99.90;;;;;;5093829;28;20659;-74
2023/08/06 05:38:41;;;;;;;0.63;0.63;;;14.70;99.90;;;;;;5097351;28;20709;-74
2023/08/06 05:41:08;;;;;;;1.03;0.50;;;14.90;99.90;;;;;;5088618;28;20708;-74
2023/08/06 05:43:34;;;;;;;0.90;0.80;;;15.00;99.90;;;;;;5099222;28;20627;-74
2023/08/06 05:46:01;;;;;;;0.83;0.80;;;15.10;99.90;;;;;;5093949;28;20653;-74
2023/08/06 05:48:28;;;;;;;0.67;0.63;;;15.00;99.90;;;;;;5085796;28;20927;-74
2023/08/06 05:50:55;;;;;;;0.80;0.70;;;15.00;99.90;;;;;;5096855;28;20644;-74
2023/08/06 05:53:21;;;;;;;0.87;0.57;;;14.90;99.90;;;;;;5088862;28;20617;-74
2023/08/06 05:55:50;;;;;;;0.60;0.60;;;14.90;99.90;;;;;;5099267;28;20661;-74
2023/08/06 05:58:16;;;;;;;0.50;0.50;;;14.90;99.90;;;;;;5092748;28;21082;-74
2023/08/06 06:00:43;;;;;;;0.63;0.63;;;14.80;99.90;;;;;;5096300;28;20675;-74
2023/08/06 06:03:10;;;;;;;2.33;0.77;;;14.70;99.90;;;;;;5094588;28;20725;-74
2023/08/06 06:05:39;;;;;;;1.90;0.97;;;14.60;99.90;;;;;;5087463;28;21044;-74
2023/08/06 06:08:06;;;;;;;0.80;0.60;;;14.70;99.90;;;;;;5080508;28;20640;-74
2023/08/06 06:10:33;;;;;;;0.70;0.63;;;14.80;99.90;;;;;;5087462;28;20657;-73
2023/08/06 06:13:01;;;;;;;0.40;0.33;;;14.90;99.90;;;;;;5089643;28;20893;-73
2023/08/06 06:15:28;;;;;;;0.40;0.40;;;14.80;99.90;;;;;;5089198;28;20651;-73
2023/08/06 06:17:55;;;;;;;0.57;0.57;;;14.80;99.90;;;;;;5096527;28;20629;-73
2023/08/06 06:20:21;;;;;;;0.70;0.50;;;14.90;99.90;;;;;;5091560;28;20664;-74
2023/08/06 06:22:48;;;;;;;1.13;0.83;;;15.00;99.90;;;;;;5100248;28;20629;-73
2023/08/06 06:25:15;;;;;;;0.97;0.80;;;15.00;99.90;;;;;;5090230;28;20623;-77
2023/08/06 06:27:42;;;;;;;0.43;0.43;;;15.00;99.90;;;;;;5095429;28;20629;-77
2023/08/06 06:30:11;;;;;;;0.73;0.73;;;15.00;99.90;;;;;;5092003;28;21235;-73
2023/08/06 06:32:39;;;;;;;0.60;0.60;;;15.00;99.90;;;;;;5088706;28;21187;-77
2023/08/06 06:35:07;;;;;;;0.63;0.53;;;15.00;99.90;;;;;;5087734;28;20625;-77
2023/08/06 06:37:33;;;;;;;0.53;0.43;;;15.00;99.90;;;;;;5087745;28;20621;-78
2023/08/06 06:40:00;;;;;;;0.70;0.67;;;15.10;99.90;;;;;;5086441;28;20673;-77
2023/08/06 06:42:27;;;;;;;0.70;0.70;;;15.10;99.90;;;;;;5088158;28;20652;-75
2023/08/06 06:44:54;;;;;;;0.50;0.50;;;15.00;99.90;;;;;;5086891;28;21185;-75
2023/08/06 06:47:22;;;;;;;0.63;0.63;;;15.00;99.90;;;;;;5088044;28;20657;-75
2023/08/06 06:49:49;;;;;;;0.50;0.50;;;15.00;99.90;;;;;;5078840;28;20634;-76
2023/08/06 06:52:15;;;;;;;0.60;0.40;;;14.90;99.90;;;;;;5087524;28;20655;-75
2023/08/06 06:54:42;;;;;;;1.80;0.60;;;14.90;99.90;;;;;;5096136;28;20976;-75
2023/08/06 06:57:09;;;;;;;1.13;0.60;;;14.90;99.90;;;;;;5087037;28;20772;-75
2023/08/06 06:59:36;;;;;;;0.93;0.83;;;15.00;99.90;;;;;;5087435;28;20727;-76
2023/08/06 07:02:02;;;;;;;2.00;1.10;;;14.80;99.90;;;;;;5086815;28;21153;-75
2023/08/06 07:04:31;;;;;;;1.90;1.70;;;14.80;99.90;;;;;;5089030;28;20735;-76
2023/08/06 07:06:57;;;;;;;0.97;0.80;;;14.70;99.90;;;;;;5084197;28;20653;-75
2023/08/06 07:09:24;;;;;;;0.57;0.57;;;14.90;99.90;;;;;;5086225;28;20635;-75
2023/08/06 07:11:51;;;;;;;0.53;0.53;;;14.80;99.90;;;;;;5088794;28;20707;-75
2023/08/06 07:14:18;;;;;;;0.50;0.43;;;14.80;99.90;;;;;;5094886;28;20984;-72
2023/08/06 07:16:45;;;;;;;0.70;0.63;;;14.70;99.90;;;;;;5091781;28;21190;-75
2023/08/06 07:19:12;;;;;;;0.77;0.50;;;14.60;99.90;;;;;;5097795;28;20713;-73
2023/08/06 07:21:40;;;;;;;0.43;0.40;;;14.50;99.90;;;;;;5091512;28;20671;-76
2023/08/06 07:24:07;;;;;;;0.80;0.80;;;14.70;99.90;;;;;;5088919;28;20724;-73
2023/08/06 07:26:33;;;;;;;0.80;0.70;;;14.70;99.90;;;;;;5091911;28;20831;-73
2023/08/06 07:29:00;;;;;;;0.50;0.40;;;14.70;99.90;;;;;;5086310;28;21469;-73
2023/08/06 07:31:27;;;;;;;0.47;0.47;;;14.60;99.90;;;;;;5086989;28;21033;-74
2023/08/06 07:33:54;;;;;;;0.40;0.40;;;14.60;99.90;;;;;;5087269;28;20627;-77
2023/08/06 07:36:21;;;;;;;1.20;0.43;;;14.60;99.90;;;;;;5092566;28;20641;-74
2023/08/06 07:38:55;;;;;;;0.60;0.47;;;14.50;99.90;;;;;;5091677;28;20656;-77
2023/08/06 07:41:22;;;;;;;0.40;0.30;;;14.50;99.90;;;;;;5089803;28;20725;-78
2023/08/06 07:43:49;;;;;;;0.50;0.40;;;14.60;99.90;;;;;;5092490;28;20609;-73
2023/08/06 07:46:16;;;;;;;0.40;0.30;;;14.60;99.90;;;;;;5102634;28;20747;-73
2023/08/06 07:48:43;;;;;;;2.57;0.53;;;14.60;99.90;;;;;;5090551;28;20721;-73
2023/08/06 07:51:10;;;;;;;0.30;0.20;;;14.60;99.90;;;;;;5090315;28;21051;-72
2023/08/06 07:53:36;;;;;;;0.50;0.40;;;14.60;99.90;;;;;;5094453;28;20628;-72
2023/08/06 07:56:08;;;;;;;0.40;0.30;;;14.70;99.90;;;;;;5092373;28;20993;-72
2023/08/06 07:58:34;;;;;;;0.40;0.30;;;14.70;99.90;;;;;;5090165;28;20857;-72
2023/08/06 08:01:01;;;;;;;0.30;0.30;;;14.90;99.90;;;;;;5095435;28;20234;-71
2023/08/06 08:03:28;;;;;;;0.60;0.30;;;15.10;99.90;;;;;;5090939;28;20628;-72
2023/08/06 08:05:58;;;;;;;0.40;0.30;;;15.30;99.90;;;;;;5089465;28;20659;-72
2023/08/06 08:08:25;;;;;;;0.30;0.20;;;15.50;99.90;;;;;;5092663;28;20640;-73
2023/08/06 08:10:52;;;;;;;0.30;0.30;;;15.60;99.90;;;;;;5090084;28;20644;-73
2023/08/06 08:13:20;;;;;;;1.60;0.33;;;15.60;99.90;;;;;;5090938;28;20629;-74
2023/08/06 08:15:58;;;;;;;0.40;0.30;;;15.60;99.90;;;;;;5090575;28;21081;-73
2023/08/06 08:18:25;;;;;;;0.40;0.30;;;15.50;99.90;;;;;;5092579;28;21204;-73
2023/08/06 08:20:52;;;;;;;0.30;0.20;;;15.50;99.90;;;;;;5089054;28;20771;-73
2023/08/06 08:23:19;;;;;;;0.30;0.20;;;15.50;99.90;;;;;;5095478;28;21124;-73
2023/08/06 08:25:46;;;;;;;0.30;0.20;;;15.60;99.90;;;;;;5093297;28;20645;-74
2023/08/06 08:28:12;;;;;;;0.30;0.27;;;15.60;99.90;;;;;;5090735;28;20624;-73
2023/08/06 08:30:43;;;;;;;0.30;0.20;;;15.50;99.90;;;;;;5089675;28;20649;-73
2023/08/06 08:33:10;;;;;;;0.43;0.30;;;15.40;99.90;;;;;;5089673;28;20625;-72
2023/08/06 08:35:38;;;;;;;0.40;0.27;;;15.50;99.90;;;;;;5089992;28;21242;-72
2023/08/06 08:38:04;;;;;;;0.30;0.30;;;15.60;99.90;;;;;;5088562;28;20617;-73
2023/08/06 08:40:33;;;;;;;0.30;0.20;;;15.60;99.90;;;;;;5088840;28;20664;-72
2023/08/06 08:43:00;;;;;;;0.30;0.20;;;15.40;99.90;;;;;;5086952;28;20663;-72
2023/08/06 08:45:29;;;;;;;0.40;0.20;;;15.40;99.90;;;;;;5095390;28;20734;-72
2023/08/06 08:47:57;;;;;;;0.30;0.20;;;15.30;99.90;;;;;;5089780;28;20631;-72
2023/08/06 08:50:24;;;;;;;0.47;0.30;;;15.30;99.90;;;;;;5087212;28;20755;-72
2023/08/06 08:52:51;;;;;;;0.30;0.30;;;15.50;99.90;;;;;;5088292;28;21203;-72
2023/08/06 08:55:22;;;;;;;0.30;0.20;;;15.60;99.90;;;;;;5089675;28;20852;-73
2023/08/06 08:57:49;;;;;;;0.30;0.20;;;15.60;99.90;;;;;;5090455;28;20861;-72
2023/08/06 09:00:19;;;;;;;0.30;0.20;;;15.60;99.90;;;;;;5090916;28;20648;-73
2023/08/06 09:02:47;;;;;;;0.30;0.20;;;15.70;99.90;;;;;;5091322;28;20728;-73
2023/08/06 09:05:16;;;;;;;1.37;0.30;;;15.50;99.90;;;;;;5092799;28;20670;-72
2023/08/06 09:07:44;;;;;;;0.50;0.40;;;15.70;99.90;;;;;;5091939;28;20632;-72
2023/08/06 09:10:13;;;;;;;0.30;0.20;;;15.80;99.90;;;;;;5093168;28;20623;-72
2023/08/06 09:12:40;;;;;;;0.53;0.33;;;15.90;99.90;;;;;;5089372;28;21489;-72
2023/08/06 09:15:08;;;;;;;0.30;0.20;;;15.90;99.90;;;;;;5089714;28;22182;-71
2023/08/06 09:17:34;;;;;;;0.30;0.20;;;15.90;99.90;;;;;;5086469;28;20624;-71
2023/08/06 09:20:11;;;;;;;0.60;0.37;;;16.00;99.90;;;;;;5089133;28;21022;-72
2023/08/06 09:22:39;;;;;;;0.80;0.30;;;15.90;99.90;;;;;;5089452;28;20659;-72
2023/08/06 09:25:09;;;;;;;1.43;0.43;;;16.10;99.90;;;;;;5092634;28;20617;-73
2023/08/06 09:27:37;;;;;;;0.30;0.20;;;16.20;99.90;;;;;;5087623;28;20762;-72
2023/08/06 09:30:04;;;;;;;0.30;0.20;;;16.40;99.90;;;;;;5088862;28;20648;-72
2023/08/06 09:32:47;;;;;;;0.53;0.23;;;16.30;99.90;;;;;;5088252;28;20629;-73
2023/08/06 09:35:17;;;;;;;0.30;0.20;;;16.30;99.90;;;;;;5095743;28;20624;-73
2023/08/06 09:37:46;;;;;;;0.30;0.20;;;16.40;99.90;;;;;;5096142;28;20629;-73
2023/08/06 09:40:26;;;;;;;0.70;0.30;;;16.30;99.90;;;;;;5085131;28;20629;-73
2023/08/06 09:42:53;;;;;;;0.30;0.20;;;16.20;99.90;;;;;;5087035;28;20620;-73
2023/08/06 09:45:21;;;;;;;0.50;0.50;;;16.30;99.90;;;;;;5091847;28;20621;-73
2023/08/06 09:47:48;;;;;;;0.30;0.20;;;16.30;99.90;;;;;;5096676;28;21085;-73
2023/08/06 09:50:19;;;;;;;0.43;0.30;;;16.20;99.90;;;;;;5086066;28;20627;-73
2023/08/06 09:52:48;;;;;;;0.40;0.30;;;16.20;99.90;;;;;;5097152;28;20617;-73
2023/08/06 09:55:15;;;;;;;0.37;0.23;;;16.20;99.90;;;;;;5102315;28;20621;-73
2023/08/06 09:57:43;;;;;;;0.30;0.20;;;16.10;99.90;;;;;;5099112;28;20631;-72
2023/08/06 10:00:11;;;;;;;0.40;0.33;;;15.90;99.90;;;;;;5096283;28;20617;-73
2023/08/06 10:02:39;;;;;;;0.30;0.30;;;16.00;99.90;;;;;;5086408;28;20730;-73
2023/08/06 10:05:06;;;;;;;1.10;0.40;;;15.90;99.90;;;;;;5100579;28;20621;-72
2023/08/06 10:07:33;;;;;;;0.40;0.20;;;15.90;99.90;;;;;;5096210;28;20768;-72
2023/08/06 10:10:01;;;;;;;0.50;0.50;;;16.00;99.90;;;;;;5095320;28;21177;-74
2023/08/06 10:12:32;;;;;;;1.33;0.33;;;15.90;99.90;;;;;;5087486;28;20622;-73
2023/08/06 10:15:02;;;;;;;0.50;0.33;;;15.90;99.90;;;;;;5088869;28;20736;-73
2023/08/06 10:17:29;;;;;;;0.30;0.20;;;15.80;99.90;;;;;;5094207;28;20684;-72
2023/08/06 10:19:56;;;;;;;0.40;0.20;;;15.80;99.90;;;;;;5096473;28;20620;-73
2023/08/06 10:22:24;;;;;;;0.40;0.20;;;15.80;99.90;;;;;;5089425;28;21160;-73
2023/08/06 10:24:52;;;;;;;0.30;0.20;;;15.80;99.90;;;;;;5088016;28;20629;-73
2023/08/06 10:27:31;;;;;;;0.47;0.30;;;15.70;99.90;;;;;;5089001;28;21091;-73
2023/08/06 10:30:25;;;;;;;0.30;0.20;;;15.60;99.90;;;;;;5088285;28;21143;-73
2023/08/06 10:32:53;;;;;;;0.60;0.40;;;15.70;99.90;;;;;;5082930;28;20621;-72
2023/08/06 10:35:36;;;;;;;0.30;0.20;;;15.80;99.90;;;;;;5087808;28;20662;-73
2023/08/06 10:38:08;;;;;;;0.60;0.60;;;15.90;99.90;;;;;;5094595;28;20975;-72
2023/08/06 10:40:35;;;;;;;0.50;0.20;;;15.70;99.90;;;;;;5095197;28;20998;-72
2023/08/06 10:43:06;;;;;;;1.03;0.47;;;15.80;99.90;;;;;;5088441;28;20628;-72
2023/08/06 10:45:35;;;;;;;0.40;0.30;;;15.70;99.90;;;;;;5088218;28;20649;-73
2023/08/06 10:48:02;;;;;;;0.40;0.20;;;15.80;99.90;;;;;;5093229;28;20628;-73
2023/08/06 10:50:31;;;;;;;0.30;0.20;;;15.90;99.90;;;;;;5081488;28;20651;-73
2023/08/06 10:52:58;;;;;;;0.40;0.33;;;16.10;99.90;;;;;;5096169;28;20965;-73
2023/08/06 10:55:26;;;;;;;0.30;0.30;;;16.20;99.90;;;;;;5087776;28;21235;-73
2023/08/06 10:57:55;;;;;;;0.50;0.30;;;16.10;99.90;;;;;;5086902;28;20621;-73
2023/08/06 11:00:24;;;;;;;0.30;0.30;;;16.20;99.90;;;;;;5086526;28;20625;-73
2023/08/06 11:02:54;;;;;;;0.40;0.30;;;16.00;99.90;;;;;;5087666;28;21042;-73
2023/08/06 11:05:21;;;;;;;0.40;0.30;;;15.90;99.90;;;;;;5093593;28;20605;-73
2023/08/06 11:07:49;;;;;;;2.60;0.67;;;16.00;99.90;;;;;;5087687;28;20637;-73
2023/08/06 11:10:16;;;;;;;0.40;0.30;;;16.00;99.90;;;;;;5094380;28;21064;-73
2023/08/06 11:12:43;;;;;;;0.73;0.30;;;15.90;99.90;;;;;;5092140;28;21039;-73
2023/08/06 11:15:11;;;;;;;0.30;0.20;;;15.90;99.90;;;;;;5090300;28;20644;-73
2023/08/06 11:17:42;;;;;;;0.40;0.40;;;15.60;99.90;;;;;;5087099;28;21165;-73
2023/08/06 11:20:09;;;;;;;0.47;0.30;;;15.60;99.90;;;;;;5086880;28;20628;-73
2023/08/06 11:22:40;;;;;;;0.50;0.20;;;15.60;99.90;;;;;;5087153;28;20668;-73
2023/08/06 11:25:08;;;;;;;0.30;0.30;;;15.30;99.90;;;;;;5096974;28;20621;-73
2023/08/06 11:27:35;;;;;;;0.40;0.40;;;15.20;99.90;;;;;;5095569;28;20613;-73
2023/08/06 11:30:02;;;;;;;0.40;0.23;;;15.20;99.90;;;;;;5096628;28;20635;-73
2023/08/06 11:32:28;;;;;;;0.30;0.20;;;15.50;99.90;;;;;;5088970;28;20740;-73
2023/08/06 11:34:57;;;;;;;0.83;0.37;;;16.00;99.90;;;;;;5094428;28;20624;-73
2023/08/06 11:37:25;;;;;;;0.60;0.60;;;16.10;99.90;;;;;;5092543;28;21223;-73
2023/08/06 11:39:52;;;;;;;0.80;0.80;;;15.90;99.90;;;;;;5086506;28;21069;-73
2023/08/06 11:42:19;;;;;;;0.70;0.70;;;15.60;99.90;;;;;;5084342;28;20222;-73
2023/08/06 11:44:48;;;;;;;0.73;0.73;;;15.50;99.90;;;;;;5086290;28;20646;-74
2023/08/06 11:47:21;;;;;;;0.40;0.40;;;15.70;99.90;;;;;;5081871;28;20776;-73
2023/08/06 11:49:49;;;;;;;0.60;0.60;;;15.70;99.90;;;;;;5085320;28;20636;-74
2023/08/06 11:52:19;;;;;;;0.60;0.40;;;15.60;99.90;;;;;;5086411;28;20684;-74
2023/08/06 11:54:48;;;;;;;0.97;0.83;;;15.50;99.90;;;;;;5087170;28;20629;-74
2023/08/06 11:57:16;;;;;;;1.60;0.70;;;15.10;99.90;;;;;;5090068;28;20652;-74
2023/08/06 11:59:43;;;;;;;0.70;0.57;;;15.20;99.90;;;;;;5082827;28;20642;-74
2023/08/06 12:02:13;;;;;;;0.77;0.77;;;15.10;99.90;;;;;;5085569;28;21020;-73
2023/08/06 12:05:04;;;;;;;0.70;0.70;;;15.00;99.90;;;;;;5085491;28;20632;-73
2023/08/06 12:07:33;;;;;;;0.60;0.47;;;15.10;99.90;;;;;;5093301;28;20735;-73
2023/08/06 12:10:00;;;;;;;0.60;0.60;;;14.90;99.90;;;;;;5095375;28;20629;-73
2023/08/06 12:12:27;;;;;;;0.40;0.30;;;15.00;99.90;;;;;;5087036;28;20699;-73
2023/08/06 12:14:54;;;;;;;0.60;0.50;;;15.10;99.90;;;;;;5086812;28;21279;-73
2023/08/06 12:17:21;;;;;;;0.70;0.50;;;15.30;99.90;;;;;;5086798;28;21244;-73
2023/08/06 12:19:48;;;;;;;0.60;0.60;;;15.20;99.90;;;;;;5094732;28;20639;-73
2023/08/06 12:22:15;;;;;;;0.97;0.97;;;15.00;99.90;;;;;;5092151;28;21322;-73
2023/08/06 12:24:45;;;;;;;1.43;0.60;;;15.00;99.90;;;;;;5086905;28;20634;-73
2023/08/06 12:27:13;;;;;;;0.43;0.43;;;15.00;99.90;;;;;;5095411;28;20742;-73
2023/08/06 12:29:43;;;;;;;0.60;0.53;;;15.10;99.90;;;;;;5089368;28;20617;-73
2023/08/06 12:32:11;;;;;;;0.47;0.47;;;15.10;99.90;;;;;;5090034;28;20653;-73
2023/08/06 12:34:39;;;;;;;0.60;0.50;;;15.00;99.90;;;;;;5099398;28;20721;-73
2023/08/06 12:37:07;;;;;;;0.60;0.53;;;15.20;99.90;;;;;;5093048;28;20649;-73
2023/08/06 12:39:36;;;;;;;0.60;0.60;;;15.30;99.90;;;;;;5087699;28;20980;-73
2023/08/06 12:42:07;;;;;;;0.67;0.67;;;15.40;99.90;;;;;;5097977;28;20678;-73
2023/08/06 12:44:34;;;;;;;0.60;0.60;;;15.70;99.90;;;;;;5090681;28;20624;-73
2023/08/06 12:47:01;;;;;;;0.40;0.30;;;16.00;99.90;;;;;;5096124;28;20742;-73
2023/08/06 12:49:28;;;;;;;0.70;0.70;;;15.90;99.90;;;;;;5089591;28;20625;-73
2023/08/06 12:51:56;;;;;;;1.10;0.60;;;15.80;99.90;;;;;;5094269;28;21556;-73